createdAt,value
2023-04-15T00:01:19.093Z,74.43
2023-04-15T00:03:47.763Z,74.94
2023-04-15T00:06:17.470Z,74.67
2023-04-15T00:08:45.611Z,74.81
2023-04-15T00:11:13.726Z,75.08
2023-04-15T00:13:42.159Z,75.33
2023-04-15T00:16:10.855Z,74.63
2023-04-15T00:18:39.236Z,75.12
2023-04-15T00:21:07.388Z,75.49
2023-04-15T00:23:37.356Z,75.10
2023-04-15T00:26:05.733Z,76.05
2023-04-15T00:28:34.522Z,75.76
2023-04-15T00:31:02.663Z,75.99
2023-04-15T00:33:30.901Z,76.67
2023-04-15T00:35:59.312Z,76.28
2023-04-15T00:38:28.087Z,76.95
2023-04-15T00:40:58.416Z,77.55
2023-04-15T00:43:27.647Z,77.42
2023-04-15T00:45:58.032Z,77.65
2023-04-15T00:48:27.953Z,77.87
2023-04-15T00:50:56.659Z,77.59
2023-04-15T00:53:24.831Z,77.93
2023-04-15T00:55:53.182Z,78.36
2023-04-15T00:58:22.671Z,79.01
2023-04-15T01:00:54.215Z,79.26
2023-04-15T01:03:22.720Z,79.65
2023-04-15T01:05:51.159Z,79.60
2023-04-15T01:08:19.336Z,79.88
2023-04-15T01:10:47.560Z,79.91
2023-04-15T01:13:15.680Z,79.85
2023-04-15T01:15:45.370Z,80.03
2023-04-15T01:18:14.460Z,80.32
2023-04-15T01:20:42.855Z,80.41
2023-04-15T01:23:11.476Z,80.91
2023-04-15T01:25:42.992Z,81.64
2023-04-15T01:28:11.325Z,81.52
2023-04-15T01:30:39.494Z,82.12
2023-04-15T01:33:07.791Z,81.96
2023-04-15T01:35:36.240Z,82.63
2023-04-15T01:38:05.999Z,82.62
2023-04-15T01:40:34.929Z,82.54
2023-04-15T01:43:04.705Z,83.42
2023-04-15T01:45:32.877Z,83.46
2023-04-15T01:48:01.360Z,84.07
2023-04-15T01:50:29.769Z,84.63
2023-04-15T01:52:58.248Z,85.03
2023-04-15T01:55:26.995Z,85.43
2023-04-15T01:57:55.115Z,85.80
2023-04-15T02:00:24.827Z,85.02
2023-04-15T02:02:53.075Z,85.05
2023-04-15T02:05:21.369Z,85.13
2023-04-15T02:07:49.544Z,85.33
2023-04-15T02:10:18.422Z,85.27
2023-04-15T02:13:01.092Z,85.49
2023-04-15T02:15:31.005Z,85.49
2023-04-15T02:18:00.797Z,85.50
2023-04-15T02:20:31.173Z,85.84
2023-04-15T02:22:59.592Z,85.84
2023-04-15T02:25:28.861Z,86.68
2023-04-15T02:27:58.600Z,86.34
2023-04-15T02:30:27.137Z,86.29
2023-04-15T02:32:56.618Z,86.66
2023-04-15T02:35:25.793Z,86.43
2023-04-15T02:37:53.979Z,86.56
2023-04-15T02:40:22.658Z,86.75
2023-04-15T02:42:51.003Z,87.10
2023-04-15T02:45:23.522Z,87.26
2023-04-15T02:47:51.735Z,87.55
2023-04-15T02:50:21.403Z,87.20
2023-04-15T02:52:49.908Z,87.53
2023-04-15T02:55:18.019Z,87.94
2023-04-15T02:57:46.180Z,88.34
2023-04-15T03:00:14.931Z,88.47
2023-04-15T03:02:43.406Z,88.75
2023-04-15T03:05:12.788Z,88.82
2023-04-15T03:07:42.443Z,89.37
2023-04-15T03:10:12.012Z,89.92
2023-04-15T03:12:40.638Z,89.72
2023-04-15T03:15:09.515Z,89.55
2023-04-15T03:17:51.977Z,90.17
2023-04-15T03:20:20.411Z,89.83
2023-04-15T03:22:49.871Z,89.94
2023-04-15T03:25:18.207Z,90.01
2023-04-15T03:27:46.315Z,89.92
2023-04-15T03:30:14.455Z,90.14
2023-04-15T03:32:42.761Z,90.06
2023-04-15T03:35:10.955Z,90.80
2023-04-15T03:37:39.239Z,91.09
2023-04-15T03:40:09.705Z,91.35
2023-04-15T03:42:37.803Z,91.24
2023-04-15T03:45:07.516Z,90.93
2023-04-15T03:47:35.844Z,90.92
2023-04-15T03:50:04.234Z,91.00
2023-04-15T03:52:32.517Z,91.20
2023-04-15T03:55:00.637Z,91.29
2023-04-15T03:57:30.196Z,91.63
2023-04-15T03:59:58.297Z,91.67
2023-04-15T04:02:28.250Z,91.65
2023-04-15T04:04:56.625Z,91.26
2023-04-15T04:07:25.261Z,91.50
2023-04-15T04:09:53.551Z,92.05
2023-04-15T04:12:21.954Z,92.35
2023-04-15T04:14:51.379Z,92.47
2023-04-15T04:17:19.627Z,92.60
2023-04-15T04:19:47.728Z,92.99
2023-04-15T04:22:16.167Z,93.01
2023-04-15T04:24:44.246Z,93.06
2023-04-15T04:27:12.449Z,93.65
2023-04-15T04:29:40.552Z,93.79
2023-04-15T04:32:10.237Z,94.01
2023-04-15T04:34:38.521Z,94.34
2023-04-15T04:37:07.066Z,94.84
2023-04-15T04:39:35.234Z,94.33
2023-04-15T04:42:03.531Z,94.62
2023-04-15T04:44:31.672Z,94.80
2023-04-15T04:46:59.748Z,95.39
2023-04-15T04:49:29.293Z,95.74
2023-04-15T04:51:58.037Z,95.96
2023-04-15T04:54:27.619Z,96.21
2023-04-15T04:56:57.959Z,96.50
2023-04-15T04:59:26.342Z,96.58
2023-04-15T05:01:54.547Z,96.47
2023-04-15T05:04:22.822Z,96.49
2023-04-15T05:06:52.225Z,96.35
2023-04-15T05:09:20.520Z,96.06
2023-04-15T05:11:48.611Z,96.12
2023-04-15T05:14:16.712Z,96.38
2023-04-15T05:16:44.894Z,96.25
2023-04-15T05:19:13.071Z,96.26
2023-04-15T05:21:41.520Z,95.85
2023-04-15T05:24:10.924Z,95.90
2023-04-15T05:26:39.038Z,95.45
2023-04-15T05:29:07.239Z,94.77
2023-04-15T05:31:35.475Z,94.82
2023-04-15T05:34:03.798Z,94.59
2023-04-15T05:36:32.418Z,93.75
2023-04-15T05:39:00.785Z,93.39
2023-04-15T05:41:30.692Z,93.51
2023-04-15T05:43:58.852Z,92.73
2023-04-15T05:46:27.514Z,91.94
2023-04-15T05:48:56.600Z,90.76
2023-04-15T05:51:24.980Z,89.81
2023-04-15T05:53:53.176Z,89.63
2023-04-15T05:56:21.407Z,89.78
2023-04-15T05:58:52.527Z,89.96
2023-04-15T06:01:22.289Z,88.81
2023-04-15T06:03:51.277Z,88.19
2023-04-15T06:06:20.355Z,88.68
2023-04-15T06:08:48.644Z,87.62
2023-04-15T06:11:16.768Z,87.06
2023-04-15T06:13:45.179Z,86.09
2023-04-15T06:16:14.766Z,85.89
2023-04-15T06:18:44.212Z,84.72
2023-04-15T06:21:12.536Z,84.80
2023-04-15T06:23:41.920Z,82.75
2023-04-15T06:26:10.363Z,81.87
2023-04-15T06:28:38.544Z,81.87
2023-04-15T06:31:07.120Z,81.21
2023-04-15T06:33:36.576Z,80.73
2023-04-15T06:36:04.907Z,80.51
2023-04-15T06:38:33.061Z,80.81
2023-04-15T06:41:01.251Z,80.89
2023-04-15T06:43:30.670Z,81.05
2023-04-15T06:45:58.850Z,81.34
2023-04-15T06:48:27.534Z,80.01
2023-04-15T06:50:58.211Z,79.80
2023-04-15T06:53:26.468Z,79.45
2023-04-15T06:55:54.600Z,79.00
2023-04-15T06:58:57.125Z,78.41
2023-04-15T07:01:25.435Z,77.21
2023-04-15T07:03:53.576Z,76.43
2023-04-15T07:06:23.106Z,76.21
2023-04-15T07:08:51.169Z,75.23
2023-04-15T07:11:19.313Z,74.72
2023-04-15T07:13:47.555Z,73.71
2023-04-15T07:16:15.879Z,73.20
2023-04-15T07:18:44.350Z,73.23
2023-04-15T07:21:12.566Z,72.21
2023-04-15T07:23:43.135Z,71.77
2023-04-15T07:26:12.203Z,71.46
2023-04-15T07:28:40.433Z,70.94
2023-04-15T07:31:08.720Z,69.47
2023-04-15T07:33:36.971Z,68.74
2023-04-15T07:36:05.198Z,67.84
2023-04-15T07:38:33.376Z,67.84
2023-04-15T07:41:02.923Z,66.40
2023-04-15T07:43:31.092Z,66.12
2023-04-15T07:45:59.976Z,64.93
2023-04-15T07:48:28.170Z,64.13
2023-04-15T07:50:56.377Z,62.92
2023-04-15T07:53:24.510Z,61.85
2023-04-15T07:55:52.605Z,61.41
2023-04-15T07:58:22.055Z,61.16
2023-04-15T08:00:50.243Z,61.26
2023-04-15T08:03:18.515Z,61.01
2023-04-15T08:05:47.242Z,62.30
2023-04-15T08:08:15.422Z,61.51
2023-04-15T08:10:43.548Z,61.01
2023-04-15T08:13:11.759Z,61.66
2023-04-15T08:15:41.446Z,60.54
2023-04-15T08:18:09.644Z,59.10
2023-04-15T08:20:38.391Z,56.71
2023-04-15T08:23:06.858Z,54.38
2023-04-15T08:25:36.844Z,51.42
2023-04-15T08:28:05.318Z,49.40
2023-04-15T08:30:33.647Z,47.15
2023-04-15T08:33:03.486Z,46.19
2023-04-15T08:35:31.708Z,48.37
2023-04-15T08:38:00.909Z,48.31
2023-04-15T08:40:35.261Z,49.48
2023-04-15T08:43:05.103Z,50.87
2023-04-15T08:45:34.708Z,50.24
2023-04-15T08:48:06.203Z,50.46
2023-04-15T08:50:35.746Z,48.85
2023-04-15T08:53:04.132Z,46.68
2023-04-15T08:55:35.906Z,46.64
2023-04-15T08:58:05.640Z,46.51
2023-04-15T09:00:34.492Z,51.05
2023-04-15T09:03:03.260Z,50.41
2023-04-15T09:05:33.725Z,50.01
2023-04-15T09:08:02.196Z,48.84
2023-04-15T09:10:32.747Z,50.98
2023-04-15T09:13:01.141Z,52.36
2023-04-15T09:15:30.182Z,53.90
2023-04-15T09:17:58.325Z,55.29
2023-04-15T09:20:27.211Z,56.76
2023-04-15T09:22:57.102Z,58.42
2023-04-15T09:25:29.220Z,59.29
2023-04-15T09:27:58.416Z,59.29
2023-04-15T09:30:38.289Z,58.94
2023-04-15T09:33:08.791Z,59.11
2023-04-15T09:35:57.460Z,56.82
2023-04-15T09:38:27.130Z,54.38
2023-04-15T09:40:55.306Z,55.34
2023-04-15T09:43:23.606Z,53.91
2023-04-15T09:45:52.926Z,53.56
2023-04-15T09:48:22.250Z,50.39
2023-04-15T09:50:50.989Z,49.89
2023-04-15T09:53:20.027Z,49.93
2023-04-15T09:55:52.266Z,49.73
2023-04-15T09:58:20.940Z,49.97
2023-04-15T10:00:49.981Z,51.50
2023-04-15T10:03:21.086Z,53.26
2023-04-15T10:05:50.302Z,54.49
2023-04-15T10:08:19.475Z,55.82
2023-04-15T10:11:05.518Z,57.51
2023-04-15T10:13:36.016Z,58.18
2023-04-15T10:16:08.383Z,59.45
2023-04-15T10:18:37.155Z,60.05
2023-04-15T10:21:06.481Z,59.72
2023-04-15T10:23:34.697Z,59.21
2023-04-15T10:26:03.518Z,59.97
2023-04-15T10:28:33.135Z,59.60
2023-04-15T10:31:02.004Z,60.11
2023-04-15T10:33:30.928Z,60.86
2023-04-15T10:35:59.468Z,62.06
2023-04-15T10:38:34.533Z,62.10
2023-04-15T10:41:21.152Z,63.06
2023-04-15T10:43:52.879Z,64.27
2023-04-15T10:46:35.161Z,65.68
2023-04-15T10:49:08.180Z,65.65
2023-04-15T10:51:41.409Z,66.36
2023-04-15T10:54:10.436Z,67.24
2023-04-15T10:56:38.511Z,66.49
2023-04-15T10:59:08.052Z,66.81
2023-04-15T11:01:51.433Z,66.25
2023-04-15T11:04:34.707Z,65.66
2023-04-15T11:07:06.761Z,63.83
2023-04-15T11:09:35.454Z,64.64
2023-04-15T11:12:09.518Z,65.66
2023-04-15T11:14:43.149Z,65.87
2023-04-15T11:17:11.481Z,66.33
2023-04-15T11:19:39.990Z,66.47
2023-04-15T11:22:08.875Z,66.86
2023-04-15T11:24:37.968Z,67.64
2023-04-15T11:27:09.643Z,67.32
2023-04-15T11:29:38.037Z,67.19
2023-04-15T11:32:10.262Z,68.10
2023-04-15T11:34:38.809Z,67.68
2023-04-15T11:37:07.991Z,68.09
2023-04-15T11:39:38.194Z,68.41
2023-04-15T11:42:17.292Z,68.62
2023-04-15T11:44:45.651Z,68.23
2023-04-15T11:47:24.810Z,69.26
2023-04-15T11:49:53.051Z,68.66
2023-04-15T11:52:21.440Z,68.59
2023-04-15T11:54:49.633Z,69.21
2023-04-15T11:57:17.891Z,69.74
2023-04-15T11:59:46.380Z,69.94
2023-04-15T12:02:14.882Z,69.96
2023-04-15T12:04:45.915Z,69.80
2023-04-15T12:07:14.215Z,70.10
2023-04-15T12:09:42.649Z,69.61
2023-04-15T12:12:12.257Z,69.55
2023-04-15T12:14:42.312Z,69.07
2023-04-15T12:17:13.077Z,69.67
2023-04-15T12:19:42.236Z,69.14
2023-04-15T12:22:12.571Z,69.26
2023-04-15T12:24:41.298Z,69.01
2023-04-15T12:27:18.132Z,69.12
2023-04-15T12:29:46.395Z,69.28
2023-04-15T12:32:15.025Z,69.04
2023-04-15T12:34:44.512Z,68.46
2023-04-15T12:37:14.438Z,67.81
2023-04-15T12:39:44.993Z,66.64
2023-04-15T12:42:13.378Z,66.63
2023-04-15T12:44:41.472Z,66.48
2023-04-15T12:47:10.230Z,66.06
2023-04-15T12:49:39.301Z,65.25
2023-04-15T12:52:07.672Z,64.77
2023-04-15T12:54:37.183Z,65.34
2023-04-15T12:57:07.178Z,65.75
2023-04-15T12:59:35.780Z,66.34
2023-04-15T13:02:04.735Z,66.55
2023-04-15T13:04:33.131Z,66.92
2023-04-15T13:07:02.297Z,66.74
2023-04-15T13:09:31.190Z,66.70
2023-04-15T13:12:01.420Z,67.02
2023-04-15T13:14:29.615Z,67.21
2023-04-15T13:16:57.953Z,68.06
2023-04-15T13:19:26.673Z,68.78
2023-04-15T13:21:55.060Z,68.76
2023-04-15T13:24:23.839Z,68.63
2023-04-15T13:26:52.280Z,69.14
2023-04-15T13:29:22.108Z,69.94
2023-04-15T13:31:50.410Z,70.34
2023-04-15T13:34:18.781Z,71.30
2023-04-15T13:36:47.113Z,71.93
2023-04-15T13:39:15.339Z,72.32
2023-04-15T13:41:43.490Z,72.40
2023-04-15T13:44:12.215Z,71.75
2023-04-15T13:46:42.641Z,72.50
2023-04-15T13:49:11.161Z,72.95
2023-04-15T13:51:40.609Z,73.18
2023-04-15T13:54:09.230Z,74.78
2023-04-15T13:56:37.631Z,75.47
2023-04-15T13:59:06.679Z,75.07
2023-04-15T14:01:35.638Z,75.23
2023-04-15T14:04:10.641Z,74.79
2023-04-15T14:06:39.364Z,76.33
2023-04-15T14:09:07.745Z,77.75
2023-04-15T14:11:36.740Z,77.95
2023-04-15T14:14:05.012Z,77.21
2023-04-15T14:16:33.450Z,78.71
2023-04-15T14:19:02.662Z,79.56
2023-04-15T14:21:33.664Z,80.80
2023-04-15T14:24:02.032Z,81.89
2023-04-15T14:26:30.198Z,83.28
2023-04-15T14:28:58.738Z,84.09
2023-04-15T14:31:27.343Z,84.35
2023-04-15T14:33:55.987Z,84.31
2023-04-15T14:36:24.376Z,83.76
2023-04-15T14:38:53.902Z,84.48
2023-04-15T14:41:23.312Z,85.04
2023-04-15T14:43:51.559Z,86.04
2023-04-15T14:46:19.780Z,85.54
2023-04-15T14:48:48.182Z,86.15
2023-04-15T14:51:17.172Z,85.80
2023-04-15T14:53:46.148Z,85.74
2023-04-15T14:56:15.854Z,86.45
2023-04-15T14:58:44.778Z,86.61
2023-04-15T15:01:13.818Z,86.29
2023-04-15T15:03:42.952Z,86.47
2023-04-15T15:06:11.872Z,86.69
2023-04-15T15:08:44.094Z,86.25
2023-04-15T15:11:13.002Z,86.58
2023-04-15T15:13:43.922Z,87.27
2023-04-15T15:16:14.629Z,87.10
2023-04-15T15:18:43.157Z,86.42
2023-04-15T15:21:32.546Z,87.06
2023-04-15T15:24:00.894Z,87.33
2023-04-15T15:26:29.775Z,87.99
2023-04-15T15:29:01.111Z,88.97
2023-04-15T15:31:29.589Z,89.13
2023-04-15T15:33:59.008Z,89.26
2023-04-15T15:36:28.334Z,89.97
2023-04-15T15:38:57.006Z,90.06
2023-04-15T15:41:26.041Z,90.21
2023-04-15T15:43:54.681Z,89.65
2023-04-15T15:46:25.540Z,90.20
2023-04-15T15:48:55.986Z,89.92
2023-04-15T15:51:25.091Z,90.20
2023-04-15T15:53:55.308Z,88.78
2023-04-15T15:56:26.919Z,89.36
2023-04-15T15:58:55.627Z,89.76
2023-04-15T16:01:26.451Z,89.45
2023-04-15T16:03:55.551Z,89.04
2023-04-15T16:06:24.120Z,89.08
2023-04-15T16:08:52.788Z,89.26
2023-04-15T16:11:21.170Z,89.40
2023-04-15T16:13:50.272Z,89.73
2023-04-15T16:16:19.548Z,90.75
2023-04-15T16:18:51.918Z,91.06
2023-04-15T16:21:20.630Z,90.69
2023-04-15T16:23:48.776Z,91.37
2023-04-15T16:26:16.936Z,92.01
2023-04-15T16:28:45.456Z,92.16
2023-04-15T16:31:13.778Z,92.64
2023-04-15T16:33:41.907Z,92.71
2023-04-15T16:36:11.489Z,93.79
2023-04-15T16:38:39.660Z,94.29
2023-04-15T16:41:07.765Z,94.54
2023-04-15T16:43:36.418Z,95.14
2023-04-15T16:46:04.551Z,95.42
2023-04-15T16:48:32.745Z,96.18
2023-04-15T16:51:01.020Z,96.21
2023-04-15T16:53:30.478Z,96.19
2023-04-15T16:55:58.619Z,96.21
2023-04-15T16:58:27.628Z,96.34
2023-04-15T17:00:56.002Z,97.32
2023-04-15T17:03:24.310Z,97.61
2023-04-15T17:05:52.590Z,97.99
2023-04-15T17:08:20.794Z,98.14
2023-04-15T17:10:51.960Z,98.49
2023-04-15T17:13:20.444Z,98.90
2023-04-15T17:15:48.562Z,99.09
2023-04-15T17:18:16.696Z,99.63
2023-04-15T17:20:44.794Z,99.49
2023-04-15T17:23:13.021Z,99.42
2023-04-15T17:25:41.269Z,99.46
2023-04-15T17:28:10.785Z,100.00
2023-04-15T17:30:38.978Z,100.00
2023-04-15T17:34:00.068Z,100.00
2023-04-15T17:35:55.436Z,99.93
2023-04-15T17:38:23.552Z,100.00
2023-04-15T17:40:51.979Z,100.00
2023-04-15T17:43:21.468Z,100.00
2023-04-15T17:45:50.161Z,100.00
2023-04-15T17:48:18.327Z,100.00
2023-04-15T17:50:51.933Z,100.00
2023-04-15T17:53:21.012Z,100.00
2023-04-15T17:55:50.548Z,100.00
2023-04-15T17:58:18.689Z,100.00
2023-04-15T18:00:48.414Z,100.00
2023-04-15T18:03:16.962Z,100.00
2023-04-15T18:05:45.260Z,100.00
2023-04-15T18:08:13.448Z,100.00
2023-04-15T18:10:41.583Z,100.00
2023-04-15T18:13:09.706Z,100.00
2023-04-15T18:15:38.012Z,100.00
2023-04-15T18:18:07.870Z,100.00
2023-04-15T18:20:36.147Z,100.00
2023-04-15T18:23:04.377Z,100.00
2023-04-15T18:25:34.145Z,100.00
2023-04-15T18:28:02.564Z,100.00
2023-04-15T18:30:31.100Z,100.00
2023-04-15T18:32:59.579Z,100.00
2023-04-15T18:35:30.782Z,100.00
2023-04-15T18:37:59.580Z,100.00
2023-04-15T18:40:28.573Z,100.00
2023-04-15T18:42:57.193Z,100.00
2023-04-15T18:45:25.823Z,100.00
2023-04-15T18:47:54.661Z,100.00
2023-04-15T18:50:23.346Z,100.00
2023-04-15T18:52:53.384Z,100.00
2023-04-15T18:55:21.650Z,100.00
2023-04-15T18:57:50.073Z,100.00
2023-04-15T19:00:20.108Z,100.00
2023-04-15T19:02:48.877Z,100.00
2023-04-15T19:05:17.272Z,100.00
2023-04-15T19:07:46.105Z,100.00
2023-04-15T19:10:16.085Z,100.00
2023-04-15T19:12:44.574Z,100.00
2023-04-15T19:15:13.032Z,100.00
2023-04-15T19:17:41.598Z,100.00
2023-04-15T19:20:10.203Z,100.00
2023-04-15T19:22:38.788Z,100.00
2023-04-15T19:25:07.480Z,100.00
2023-04-15T19:27:38.322Z,100.00
2023-04-15T19:30:08.248Z,100.00
2023-04-15T19:32:37.023Z,100.00
2023-04-15T19:35:05.868Z,100.00
2023-04-15T19:37:34.500Z,100.00
2023-04-15T19:40:03.069Z,100.00
2023-04-15T19:42:31.930Z,100.00
2023-04-15T19:45:01.648Z,100.00
2023-04-15T19:47:31.897Z,100.00
2023-04-15T19:50:00.325Z,100.00
2023-04-15T19:52:29.150Z,100.00
2023-04-15T19:54:58.144Z,100.00
2023-04-15T19:57:26.436Z,100.00
2023-04-15T19:59:54.992Z,100.00
2023-04-15T20:02:25.100Z,100.00
2023-04-15T20:04:53.657Z,100.00
2023-04-15T20:07:22.126Z,100.00
2023-04-15T20:09:51.846Z,100.00
2023-04-15T20:12:50.151Z,100.00
2023-04-15T20:15:09.614Z,100.00
2023-04-15T20:17:39.292Z,100.00
2023-04-15T20:20:08.436Z,100.00
2023-04-15T20:22:36.807Z,100.00
2023-04-15T20:25:05.818Z,100.00
2023-04-15T20:27:34.617Z,100.00
2023-04-15T20:30:04.256Z,100.00
2023-04-15T20:32:35.713Z,100.00
2023-04-15T20:35:07.030Z,100.00
2023-04-15T20:37:36.304Z,100.00
2023-04-15T20:40:05.149Z,100.00
2023-04-15T20:42:34.245Z,100.00
2023-04-15T20:45:03.181Z,100.00
2023-04-15T20:47:31.660Z,100.00
2023-04-15T20:50:00.161Z,100.00
2023-04-15T20:52:31.163Z,100.00
2023-04-15T20:54:59.763Z,100.00
2023-04-15T20:57:30.154Z,100.00
2023-04-15T20:59:58.409Z,100.00
2023-04-15T21:02:27.417Z,100.00
2023-04-15T21:04:56.028Z,100.00
2023-04-15T21:07:24.501Z,100.00
2023-04-15T21:09:55.386Z,100.00
2023-04-15T21:12:24.261Z,100.00
2023-04-15T21:14:52.947Z,100.00
2023-04-15T21:17:21.617Z,100.00
2023-04-15T21:19:50.260Z,100.00
2023-04-15T21:22:19.089Z,100.00
2023-04-15T21:24:47.969Z,100.00
2023-04-15T21:27:18.436Z,100.00
2023-04-15T21:29:46.826Z,100.00
2023-04-15T21:32:15.849Z,100.00
2023-04-15T21:34:44.575Z,100.00
2023-04-15T21:37:13.508Z,100.00
2023-04-15T21:39:42.210Z,100.00
2023-04-15T21:42:10.758Z,100.00
2023-04-15T21:44:41.358Z,100.00
2023-04-15T21:47:10.623Z,100.00
2023-04-15T21:49:39.290Z,100.00
2023-04-15T21:52:08.085Z,100.00
2023-04-15T21:54:38.021Z,100.00
2023-04-15T21:57:06.439Z,100.00
2023-04-15T21:59:35.038Z,100.00
2023-04-15T22:02:04.859Z,100.00
2023-04-15T22:04:33.711Z,100.00
2023-04-15T22:07:04.682Z,100.00
2023-04-15T22:09:33.485Z,100.00
2023-04-15T22:12:02.304Z,100.00
2023-04-15T22:14:31.426Z,100.00
2023-04-15T22:17:00.943Z,100.00
2023-04-15T22:19:31.194Z,100.00
2023-04-15T22:22:00.085Z,100.00
2023-04-15T22:24:36.856Z,100.00
2023-04-15T22:27:09.694Z,100.00
2023-04-15T22:29:39.999Z,100.00
2023-04-15T22:32:09.097Z,100.00
2023-04-15T22:34:39.262Z,100.00
2023-04-15T22:37:08.572Z,100.00
2023-04-15T22:39:37.699Z,100.00
2023-04-15T22:42:06.263Z,100.00
2023-04-15T22:44:35.455Z,100.00
2023-04-15T22:47:04.064Z,100.00
2023-04-15T22:49:35.461Z,100.00
2023-04-15T22:52:05.298Z,100.00
2023-04-15T22:54:33.697Z,100.00
2023-04-15T22:57:02.513Z,100.00
2023-04-15T22:59:30.831Z,100.00
2023-04-15T23:01:59.264Z,100.00
2023-04-15T23:04:28.093Z,100.00
2023-04-15T23:06:56.889Z,100.00
2023-04-15T23:09:27.241Z,100.00
2023-04-15T23:11:56.498Z,100.00
2023-04-15T23:14:26.088Z,100.00
2023-04-15T23:16:54.610Z,100.00
2023-04-15T23:19:22.714Z,100.00
2023-04-15T23:21:56.783Z,100.00
2023-04-15T23:24:26.325Z,100.00
2023-04-15T23:26:54.930Z,100.00
2023-04-15T23:29:23.479Z,100.00
2023-04-15T23:31:52.027Z,100.00
2023-04-15T23:34:20.222Z,100.00
2023-04-15T23:36:48.395Z,100.00
2023-04-15T23:39:16.862Z,100.00
2023-04-15T23:41:46.571Z,100.00
2023-04-15T23:44:14.646Z,100.00
2023-04-15T23:46:42.855Z,100.00
2023-04-15T23:49:11.219Z,100.00
2023-04-15T23:51:39.677Z,100.00
2023-04-15T23:54:07.862Z,100.00
2023-04-15T23:56:36.394Z,100.00
2023-04-15T23:59:06.265Z,100.00
